sensor_id;sensor_type;location;lat;lon;timestamp;temperature;humidity
12289;DHT22;6207;49.308;7.336;2022-11-28T00:01:32;4.80;99.90
12289;DHT22;6207;49.308;7.336;2022-11-28T00:04:00;4.70;99.90
12289;DHT22;6207;49.308;7.336;2022-11-28T00:06:27;4.80;99.90
12289;DHT22;6207;49.308;7.336;2022-11-28T00:08:57;4.70;99.90
12289;DHT22;6207;49.308;7.336;2022-11-28T00:11:25;4.70;99.90
12289;DHT22;6207;49.308;7.336;2022-11-28T00:13:53;5.00;99.90
12289;DHT22;6207;49.308;7.336;2022-11-28T00:16:21;4.80;99.90
12289;DHT22;6207;49.308;7.336;2022-11-28T00:18:53;4.80;99.90
12289;DHT22;6207;49.308;7.336;2022-11-28T00:21:21;5.00;99.90
12289;DHT22;6207;49.308;7.336;2022-11-28T00:23:48;5.10;99.90
12289;DHT22;6207;49.308;7.336;2022-11-28T00:26:22;4.70;99.90
12289;DHT22;6207;49.308;7.336;2022-11-28T00:28:49;4.70;99.90
12289;DHT22;6207;49.308;7.336;2022-11-28T00:31:22;4.70;99.90
12289;DHT22;6207;49.308;7.336;2022-11-28T00:33:50;4.80;99.90
12289;DHT22;6207;49.308;7.336;2022-11-28T00:36:17;4.80;99.90
12289;DHT22;6207;49.308;7.336;2022-11-28T00:38:44;4.80;99.90
12289;DHT22;6207;49.308;7.336;2022-11-28T00:41:14;4.80;99.90
12289;DHT22;6207;49.308;7.336;2022-11-28T00:43:42;4.80;99.90
12289;DHT22;6207;49.308;7.336;2022-11-28T00:46:10;4.80;99.90
12289;DHT22;6207;49.308;7.336;2022-11-28T00:48:38;4.80;99.90
12289;DHT22;6207;49.308;7.336;2022-11-28T00:51:06;4.80;99.90
12289;DHT22;6207;49.308;7.336;2022-11-28T00:53:33;4.70;99.90
12289;DHT22;6207;49.308;7.336;2022-11-28T00:56:03;4.90;99.90
12289;DHT22;6207;49.308;7.336;2022-11-28T00:58:31;4.70;99.90
12289;DHT22;6207;49.308;7.336;2022-11-28T01:00:59;5.00;99.90
12289;DHT22;6207;49.308;7.336;2022-11-28T01:03:26;4.90;99.90
12289;DHT22;6207;49.308;7.336;2022-11-28T01:05:53;5.10;99.90
12289;DHT22;6207;49.308;7.336;2022-11-28T01:08:20;5.00;99.90
12289;DHT22;6207;49.308;7.336;2022-11-28T01:10:46;5.20;99.90
12289;DHT22;6207;49.308;7.336;2022-11-28T01:13:13;5.10;99.90
12289;DHT22;6207;49.308;7.336;2022-11-28T01:15:41;5.00;99.90
12289;DHT22;6207;49.308;7.336;2022-11-28T01:18:08;4.90;99.90
12289;DHT22;6207;49.308;7.336;2022-11-28T01:20:35;4.90;99.90
12289;DHT22;6207;49.308;7.336;2022-11-28T01:23:02;4.80;99.90
12289;DHT22;6207;49.308;7.336;2022-11-28T01:25:30;4.70;99.90
12289;DHT22;6207;49.308;7.336;2022-11-28T01:27:57;4.60;99.90
12289;DHT22;6207;49.308;7.336;2022-11-28T01:30:24;4.90;99.90
12289;DHT22;6207;49.308;7.336;2022-11-28T01:32:51;4.50;99.90
12289;DHT22;6207;49.308;7.336;2022-11-28T01:35:17;4.40;99.90
12289;DHT22;6207;49.308;7.336;2022-11-28T01:37:44;4.30;99.90
12289;DHT22;6207;49.308;7.336;2022-11-28T01:40:12;5.10;99.90
12289;DHT22;6207;49.308;7.336;2022-11-28T01:42:39;4.30;99.90
12289;DHT22;6207;49.308;7.336;2022-11-28T01:47:38;4.20;99.90
12289;DHT22;6207;49.308;7.336;2022-11-28T01:50:06;4.20;99.90
12289;DHT22;6207;49.308;7.336;2022-11-28T01:52:36;4.10;99.90
12289;DHT22;6207;49.308;7.336;2022-11-28T01:55:05;4.10;99.90
12289;DHT22;6207;49.308;7.336;2022-11-28T01:57:33;4.10;99.90
12289;DHT22;6207;49.308;7.336;2022-11-28T02:00:06;4.10;99.90
12289;DHT22;6207;49.308;7.336;2022-11-28T02:02:39;4.10;99.90
12289;DHT22;6207;49.308;7.336;2022-11-28T02:05:07;4.10;99.90
12289;DHT22;6207;49.308;7.336;2022-11-28T02:07:35;4.00;99.90
12289;DHT22;6207;49.308;7.336;2022-11-28T02:10:06;4.10;99.90
12289;DHT22;6207;49.308;7.336;2022-11-28T02:12:58;4.10;99.90
12289;DHT22;6207;49.308;7.336;2022-11-28T02:35:19;3.90;99.90
12289;DHT22;6207;49.308;7.336;2022-11-28T02:40:52;3.80;99.90
12289;DHT22;6207;49.308;7.336;2022-11-28T02:43:28;3.80;99.90
12289;DHT22;6207;49.308;7.336;2022-11-28T02:46:09;3.80;99.90
12289;DHT22;6207;49.308;7.336;2022-11-28T02:51:25;3.70;99.90
12289;DHT22;6207;49.308;7.336;2022-11-28T02:53:56;3.70;99.90
12289;DHT22;6207;49.308;7.336;2022-11-28T02:56:24;3.70;99.90
12289;DHT22;6207;49.308;7.336;2022-11-28T02:58:51;3.60;99.90
12289;DHT22;6207;49.308;7.336;2022-11-28T03:01:28;3.60;99.90
12289;DHT22;6207;49.308;7.336;2022-11-28T03:07:48;3.60;99.90
12289;DHT22;6207;49.308;7.336;2022-11-28T03:10:35;3.60;99.90
12289;DHT22;6207;49.308;7.336;2022-11-28T03:21:42;4.40;99.90
12289;DHT22;6207;49.308;7.336;2022-11-28T03:24:33;4.80;99.90
12289;DHT22;6207;49.308;7.336;2022-11-28T03:29:51;5.60;99.90
12289;DHT22;6207;49.308;7.336;2022-11-28T03:32:23;5.30;99.90
12289;DHT22;6207;49.308;7.336;2022-11-28T03:34:58;5.30;99.90
12289;DHT22;6207;49.308;7.336;2022-11-28T03:37:34;5.40;99.90
12289;DHT22;6207;49.308;7.336;2022-11-28T03:40:07;5.40;99.90
12289;DHT22;6207;49.308;7.336;2022-11-28T03:42:44;5.30;99.90
12289;DHT22;6207;49.308;7.336;2022-11-28T03:47:49;5.50;99.90
12289;DHT22;6207;49.308;7.336;2022-11-28T03:50:35;5.60;99.90
12289;DHT22;6207;49.308;7.336;2022-11-28T03:53:08;5.60;99.90
12289;DHT22;6207;49.308;7.336;2022-11-28T03:55:42;5.50;99.90
12289;DHT22;6207;49.308;7.336;2022-11-28T03:58:26;5.50;99.90
12289;DHT22;6207;49.308;7.336;2022-11-28T04:01:12;5.50;99.90
12289;DHT22;6207;49.308;7.336;2022-11-28T04:03:54;5.80;99.90
12289;DHT22;6207;49.308;7.336;2022-11-28T04:09:19;5.60;99.90
12289;DHT22;6207;49.308;7.336;2022-11-28T04:11:52;5.50;99.90
12289;DHT22;6207;49.308;7.336;2022-11-28T04:14:26;5.50;99.90
12289;DHT22;6207;49.308;7.336;2022-11-28T04:17:04;5.50;99.90
12289;DHT22;6207;49.308;7.336;2022-11-28T04:19:46;5.50;99.90
12289;DHT22;6207;49.308;7.336;2022-11-28T04:22:34;5.60;99.90
12289;DHT22;6207;49.308;7.336;2022-11-28T04:25:08;5.50;99.90
12289;DHT22;6207;49.308;7.336;2022-11-28T04:27:40;5.60;99.90
12289;DHT22;6207;49.308;7.336;2022-11-28T04:30:10;5.60;99.90
12289;DHT22;6207;49.308;7.336;2022-11-28T04:32:40;5.50;99.90
12289;DHT22;6207;49.308;7.336;2022-11-28T04:35:15;5.50;99.90
12289;DHT22;6207;49.308;7.336;2022-11-28T04:37:46;5.50;99.90
12289;DHT22;6207;49.308;7.336;2022-11-28T04:40:15;5.40;99.90
12289;DHT22;6207;49.308;7.336;2022-11-28T04:42:51;5.40;99.90
12289;DHT22;6207;49.308;7.336;2022-11-28T04:47:49;5.30;99.90
12289;DHT22;6207;49.308;7.336;2022-11-28T04:50:16;5.30;99.90
12289;DHT22;6207;49.308;7.336;2022-11-28T04:55:37;5.50;99.90
12289;DHT22;6207;49.308;7.336;2022-11-28T04:58:08;5.60;99.90
12289;DHT22;6207;49.308;7.336;2022-11-28T05:00:37;5.70;99.90
12289;DHT22;6207;49.308;7.336;2022-11-28T05:03:04;5.80;99.90
12289;DHT22;6207;49.308;7.336;2022-11-28T05:05:44;5.80;99.90
12289;DHT22;6207;49.308;7.336;2022-11-28T05:08:12;5.90;99.90
12289;DHT22;6207;49.308;7.336;2022-11-28T05:10:39;5.80;99.90
12289;DHT22;6207;49.308;7.336;2022-11-28T05:13:06;5.90;99.90
12289;DHT22;6207;49.308;7.336;2022-11-28T05:15:33;5.70;99.90
12289;DHT22;6207;49.308;7.336;2022-11-28T05:17:59;5.70;99.90
12289;DHT22;6207;49.308;7.336;2022-11-28T05:20:27;5.60;99.90
12289;DHT22;6207;49.308;7.336;2022-11-28T05:22:54;5.60;99.90
12289;DHT22;6207;49.308;7.336;2022-11-28T05:25:20;5.70;99.90
12289;DHT22;6207;49.308;7.336;2022-11-28T05:27:47;5.60;99.90
12289;DHT22;6207;49.308;7.336;2022-11-28T05:30:15;5.80;99.90
12289;DHT22;6207;49.308;7.336;2022-11-28T05:32:42;5.50;99.90
12289;DHT22;6207;49.308;7.336;2022-11-28T05:35:10;5.40;99.90
12289;DHT22;6207;49.308;7.336;2022-11-28T05:37:37;5.40;99.90
12289;DHT22;6207;49.308;7.336;2022-11-28T05:40:04;5.60;99.90
12289;DHT22;6207;49.308;7.336;2022-11-28T05:42:33;5.70;99.90
12289;DHT22;6207;49.308;7.336;2022-11-28T05:45:00;5.80;99.90
12289;DHT22;6207;49.308;7.336;2022-11-28T05:47:32;5.80;99.90
12289;DHT22;6207;49.308;7.336;2022-11-28T05:49:59;5.90;99.90
12289;DHT22;6207;49.308;7.336;2022-11-28T05:52:27;5.80;99.90
12289;DHT22;6207;49.308;7.336;2022-11-28T05:54:58;5.90;99.90
12289;DHT22;6207;49.308;7.336;2022-11-28T05:57:25;5.90;99.90
12289;DHT22;6207;49.308;7.336;2022-11-28T05:59:55;5.80;99.90
12289;DHT22;6207;49.308;7.336;2022-11-28T06:02:23;5.80;99.90
12289;DHT22;6207;49.308;7.336;2022-11-28T06:04:50;5.80;99.90
12289;DHT22;6207;49.308;7.336;2022-11-28T06:07:17;5.80;99.90
12289;DHT22;6207;49.308;7.336;2022-11-28T06:09:45;5.60;99.90
12289;DHT22;6207;49.308;7.336;2022-11-28T06:12:12;5.60;99.90
12289;DHT22;6207;49.308;7.336;2022-11-28T06:14:39;5.50;99.90
12289;DHT22;6207;49.308;7.336;2022-11-28T06:17:06;5.40;99.90
12289;DHT22;6207;49.308;7.336;2022-11-28T06:19:33;5.40;99.90
12289;DHT22;6207;49.308;7.336;2022-11-28T06:22:00;5.40;99.90
12289;DHT22;6207;49.308;7.336;2022-11-28T06:24:26;6.00;99.90
12289;DHT22;6207;49.308;7.336;2022-11-28T06:26:53;5.30;99.90
12289;DHT22;6207;49.308;7.336;2022-11-28T06:29:20;5.40;99.90
12289;DHT22;6207;49.308;7.336;2022-11-28T06:31:47;5.40;99.90
12289;DHT22;6207;49.308;7.336;2022-11-28T06:34:15;5.40;99.90
12289;DHT22;6207;49.308;7.336;2022-11-28T06:36:42;5.20;99.90
12289;DHT22;6207;49.308;7.336;2022-11-28T06:39:12;5.20;99.90
12289;DHT22;6207;49.308;7.336;2022-11-28T06:41:42;5.20;99.90
12289;DHT22;6207;49.308;7.336;2022-11-28T06:44:14;5.20;99.90
12289;DHT22;6207;49.308;7.336;2022-11-28T06:46:41;5.20;99.90
12289;DHT22;6207;49.308;7.336;2022-11-28T06:49:12;5.20;99.90
12289;DHT22;6207;49.308;7.336;2022-11-28T06:51:39;5.10;99.90
12289;DHT22;6207;49.308;7.336;2022-11-28T06:54:07;5.10;99.90
12289;DHT22;6207;49.308;7.336;2022-11-28T06:56:34;5.00;99.90
12289;DHT22;6207;49.308;7.336;2022-11-28T06:59:01;4.90;99.90
12289;DHT22;6207;49.308;7.336;2022-11-28T07:01:30;5.20;99.90
12289;DHT22;6207;49.308;7.336;2022-11-28T07:03:57;4.90;99.90
12289;DHT22;6207;49.308;7.336;2022-11-28T07:06:26;4.90;99.90
12289;DHT22;6207;49.308;7.336;2022-11-28T07:08:55;4.90;99.90
12289;DHT22;6207;49.308;7.336;2022-11-28T07:11:26;4.80;99.90
12289;DHT22;6207;49.308;7.336;2022-11-28T07:13:54;4.80;99.90
12289;DHT22;6207;49.308;7.336;2022-11-28T07:16:23;4.80;99.90
12289;DHT22;6207;49.308;7.336;2022-11-28T07:18:51;4.80;99.90
12289;DHT22;6207;49.308;7.336;2022-11-28T07:21:19;4.90;99.90
12289;DHT22;6207;49.308;7.336;2022-11-28T07:23:46;4.90;99.90
12289;DHT22;6207;49.308;7.336;2022-11-28T07:26:15;4.90;99.90
12289;DHT22;6207;49.308;7.336;2022-11-28T07:28:44;4.90;99.90
12289;DHT22;6207;49.308;7.336;2022-11-28T07:31:14;5.00;99.90
12289;DHT22;6207;49.308;7.336;2022-11-28T07:33:46;5.00;99.90
12289;DHT22;6207;49.308;7.336;2022-11-28T07:36:16;5.20;99.90
12289;DHT22;6207;49.308;7.336;2022-11-28T07:38:51;5.10;99.90
12289;DHT22;6207;49.308;7.336;2022-11-28T07:41:19;5.10;99.90
12289;DHT22;6207;49.308;7.336;2022-11-28T07:43:54;5.20;99.90
12289;DHT22;6207;49.308;7.336;2022-11-28T07:46:21;5.20;99.90
12289;DHT22;6207;49.308;7.336;2022-11-28T07:48:48;5.10;99.90
12289;DHT22;6207;49.308;7.336;2022-11-28T07:51:24;5.20;99.90
12289;DHT22;6207;49.308;7.336;2022-11-28T07:53:52;5.30;99.90
12289;DHT22;6207;49.308;7.336;2022-11-28T07:56:21;5.50;99.90
12289;DHT22;6207;49.308;7.336;2022-11-28T07:58:49;5.90;99.90
12289;DHT22;6207;49.308;7.336;2022-11-28T08:01:22;5.80;99.90
12289;DHT22;6207;49.308;7.336;2022-11-28T08:03:50;5.70;99.90
12289;DHT22;6207;49.308;7.336;2022-11-28T08:06:18;5.60;99.90
12289;DHT22;6207;49.308;7.336;2022-11-28T08:08:46;5.60;99.90
12289;DHT22;6207;49.308;7.336;2022-11-28T08:11:15;5.70;99.90
12289;DHT22;6207;49.308;7.336;2022-11-28T08:13:42;5.60;99.90
12289;DHT22;6207;49.308;7.336;2022-11-28T08:16:18;5.80;99.90
12289;DHT22;6207;49.308;7.336;2022-11-28T08:18:50;5.80;99.90
12289;DHT22;6207;49.308;7.336;2022-11-28T08:21:25;6.10;99.90
12289;DHT22;6207;49.308;7.336;2022-11-28T08:23:54;6.10;99.90
12289;DHT22;6207;49.308;7.336;2022-11-28T08:26:23;6.50;99.90
12289;DHT22;6207;49.308;7.336;2022-11-28T08:28:56;6.20;99.90
12289;DHT22;6207;49.308;7.336;2022-11-28T08:31:42;6.30;99.90
12289;DHT22;6207;49.308;7.336;2022-11-28T08:34:09;6.20;99.90
12289;DHT22;6207;49.308;7.336;2022-11-28T08:36:38;6.30;99.90
12289;DHT22;6207;49.308;7.336;2022-11-28T08:39:05;6.30;99.90
12289;DHT22;6207;49.308;7.336;2022-11-28T08:41:50;6.30;99.90
12289;DHT22;6207;49.308;7.336;2022-11-28T08:44:17;6.30;99.90
12289;DHT22;6207;49.308;7.336;2022-11-28T08:46:44;6.70;99.90
12289;DHT22;6207;49.308;7.336;2022-11-28T08:49:11;6.50;99.90
12289;DHT22;6207;49.308;7.336;2022-11-28T08:51:37;6.50;99.90
12289;DHT22;6207;49.308;7.336;2022-11-28T08:54:04;7.20;99.90
12289;DHT22;6207;49.308;7.336;2022-11-28T08:56:31;6.60;99.90
12289;DHT22;6207;49.308;7.336;2022-11-28T08:58:58;6.60;99.90
12289;DHT22;6207;49.308;7.336;2022-11-28T09:01:25;6.70;99.90
12289;DHT22;6207;49.308;7.336;2022-11-28T09:03:54;6.90;99.90
12289;DHT22;6207;49.308;7.336;2022-11-28T09:06:22;6.70;99.90
12289;DHT22;6207;49.308;7.336;2022-11-28T09:08:50;6.70;99.90
12289;DHT22;6207;49.308;7.336;2022-11-28T09:11:19;6.80;99.90
12289;DHT22;6207;49.308;7.336;2022-11-28T09:13:46;6.80;99.90
12289;DHT22;6207;49.308;7.336;2022-11-28T09:16:13;6.80;99.90
12289;DHT22;6207;49.308;7.336;2022-11-28T09:18:41;7.00;99.90
12289;DHT22;6207;49.308;7.336;2022-11-28T09:21:09;6.90;99.90
12289;DHT22;6207;49.308;7.336;2022-11-28T09:23:41;7.00;99.90
12289;DHT22;6207;49.308;7.336;2022-11-28T09:26:17;7.00;99.90
12289;DHT22;6207;49.308;7.336;2022-11-28T09:28:44;6.90;99.90
12289;DHT22;6207;49.308;7.336;2022-11-28T09:31:15;7.00;99.90
12289;DHT22;6207;49.308;7.336;2022-11-28T09:33:42;7.00;99.90
12289;DHT22;6207;49.308;7.336;2022-11-28T09:36:11;7.00;99.90
12289;DHT22;6207;49.308;7.336;2022-11-28T09:38:38;7.00;99.90
12289;DHT22;6207;49.308;7.336;2022-11-28T09:46:40;7.10;99.90
12289;DHT22;6207;49.308;7.336;2022-11-28T09:49:26;7.20;99.90
12289;DHT22;6207;49.308;7.336;2022-11-28T09:54:58;7.30;99.90
12289;DHT22;6207;49.308;7.336;2022-11-28T09:57:48;7.40;99.90
12289;DHT22;6207;49.308;7.336;2022-11-28T10:01:27;7.60;99.90
12289;DHT22;6207;49.308;7.336;2022-11-28T10:03:58;7.50;99.90
12289;DHT22;6207;49.308;7.336;2022-11-28T10:18:08;7.80;99.90
12289;DHT22;6207;49.308;7.336;2022-11-28T10:20:40;7.90;99.90
12289;DHT22;6207;49.308;7.336;2022-11-28T10:26:39;7.80;99.90
12289;DHT22;6207;49.308;7.336;2022-11-28T10:29:25;7.80;99.90
12289;DHT22;6207;49.308;7.336;2022-11-28T10:31:56;7.90;99.90
12289;DHT22;6207;49.308;7.336;2022-11-28T10:34:39;8.00;99.90
12289;DHT22;6207;49.308;7.336;2022-11-28T10:37:20;8.00;99.90
12289;DHT22;6207;49.308;7.336;2022-11-28T10:39:49;8.00;99.90
12289;DHT22;6207;49.308;7.336;2022-11-28T10:42:22;8.20;99.90
12289;DHT22;6207;49.308;7.336;2022-11-28T10:56:07;8.00;99.90
12289;DHT22;6207;49.308;7.336;2022-11-28T11:01:13;8.10;99.90
12289;DHT22;6207;49.308;7.336;2022-11-28T11:03:40;8.30;99.90
12289;DHT22;6207;49.308;7.336;2022-11-28T11:06:07;8.20;99.90
12289;DHT22;6207;49.308;7.336;2022-11-28T11:08:36;8.30;99.90
12289;DHT22;6207;49.308;7.336;2022-11-28T11:11:24;8.30;99.90
12289;DHT22;6207;49.308;7.336;2022-11-28T11:14:05;8.20;99.90
12289;DHT22;6207;49.308;7.336;2022-11-28T11:16:47;8.30;99.90
12289;DHT22;6207;49.308;7.336;2022-11-28T11:19:35;8.30;99.90
12289;DHT22;6207;49.308;7.336;2022-11-28T11:22:13;8.30;99.90
12289;DHT22;6207;49.308;7.336;2022-11-28T11:25:12;8.50;99.90
12289;DHT22;6207;49.308;7.336;2022-11-28T11:28:10;8.40;99.90
12289;DHT22;6207;49.308;7.336;2022-11-28T11:30:57;8.50;99.90
12289;DHT22;6207;49.308;7.336;2022-11-28T11:33:31;8.70;99.90
12289;DHT22;6207;49.308;7.336;2022-11-28T11:35:59;8.60;99.90
12289;DHT22;6207;49.308;7.336;2022-11-28T11:38:30;8.80;99.90
12289;DHT22;6207;49.308;7.336;2022-11-28T11:41:26;8.80;99.90
12289;DHT22;6207;49.308;7.336;2022-11-28T11:43:55;9.00;99.90
12289;DHT22;6207;49.308;7.336;2022-11-28T11:46:23;8.90;99.90
12289;DHT22;6207;49.308;7.336;2022-11-28T11:48:51;8.70;99.90
12289;DHT22;6207;49.308;7.336;2022-11-28T11:53:46;8.70;99.90
12289;DHT22;6207;49.308;7.336;2022-11-28T11:56:13;8.60;99.90
12289;DHT22;6207;49.308;7.336;2022-11-28T11:58:45;8.60;99.90
12289;DHT22;6207;49.308;7.336;2022-11-28T12:01:16;8.50;99.90
12289;DHT22;6207;49.308;7.336;2022-11-28T12:04:04;8.50;99.90
12289;DHT22;6207;49.308;7.336;2022-11-28T12:06:54;8.50;99.90
12289;DHT22;6207;49.308;7.336;2022-11-28T12:12:14;8.60;99.90
12289;DHT22;6207;49.308;7.336;2022-11-28T12:14:42;8.60;99.90
12289;DHT22;6207;49.308;7.336;2022-11-28T12:17:25;8.50;99.90
12289;DHT22;6207;49.308;7.336;2022-11-28T12:21:01;8.70;99.90
12289;DHT22;6207;49.308;7.336;2022-11-28T12:23:37;8.70;99.90
12289;DHT22;6207;49.308;7.336;2022-11-28T12:26:16;8.80;99.90
12289;DHT22;6207;49.308;7.336;2022-11-28T12:37:27;9.00;99.90
12289;DHT22;6207;49.308;7.336;2022-11-28T12:43:19;8.90;99.90
12289;DHT22;6207;49.308;7.336;2022-11-28T12:54:37;9.00;99.90
12289;DHT22;6207;49.308;7.336;2022-11-28T12:57:19;8.90;99.90
12289;DHT22;6207;49.308;7.336;2022-11-28T13:00:03;8.90;99.90
12289;DHT22;6207;49.308;7.336;2022-11-28T13:05:49;8.90;99.90
12289;DHT22;6207;49.308;7.336;2022-11-28T13:14:02;8.90;99.90
12289;DHT22;6207;49.308;7.336;2022-11-28T13:16:45;8.90;99.90
12289;DHT22;6207;49.308;7.336;2022-11-28T13:22:22;8.90;99.90
12289;DHT22;6207;49.308;7.336;2022-11-28T13:25:22;9.00;99.90
12289;DHT22;6207;49.308;7.336;2022-11-28T13:28:02;8.90;99.90
12289;DHT22;6207;49.308;7.336;2022-11-28T13:30:55;8.90;99.90
12289;DHT22;6207;49.308;7.336;2022-11-28T13:35:57;8.70;99.90
12289;DHT22;6207;49.308;7.336;2022-11-28T13:38:49;8.70;99.90
12289;DHT22;6207;49.308;7.336;2022-11-28T13:45:05;8.70;99.90
12289;DHT22;6207;49.308;7.336;2022-11-28T13:47:44;8.70;99.90
12289;DHT22;6207;49.308;7.336;2022-11-28T13:50:31;8.70;99.90
12289;DHT22;6207;49.308;7.336;2022-11-28T13:52:58;8.80;99.90
12289;DHT22;6207;49.308;7.336;2022-11-28T13:55:49;8.90;99.90
12289;DHT22;6207;49.308;7.336;2022-11-28T14:01:13;8.60;99.90
12289;DHT22;6207;49.308;7.336;2022-11-28T14:04:14;8.60;99.90
12289;DHT22;6207;49.308;7.336;2022-11-28T14:06:45;8.60;99.90
12289;DHT22;6207;49.308;7.336;2022-11-28T14:20:39;8.50;99.90
12289;DHT22;6207;49.308;7.336;2022-11-28T14:23:47;8.50;99.90
12289;DHT22;6207;49.308;7.336;2022-11-28T14:26:38;8.40;99.90
12289;DHT22;6207;49.308;7.336;2022-11-28T14:29:17;8.40;99.90
12289;DHT22;6207;49.308;7.336;2022-11-28T14:31:46;8.40;99.90
12289;DHT22;6207;49.308;7.336;2022-11-28T14:34:43;8.40;99.90
12289;DHT22;6207;49.308;7.336;2022-11-28T14:39:48;8.30;99.90
12289;DHT22;6207;49.308;7.336;2022-11-28T14:45:38;8.30;99.90
12289;DHT22;6207;49.308;7.336;2022-11-28T14:48:27;8.30;99.90
12289;DHT22;6207;49.308;7.336;2022-11-28T14:50:55;8.30;99.90
12289;DHT22;6207;49.308;7.336;2022-11-28T14:53:57;8.30;99.90
12289;DHT22;6207;49.308;7.336;2022-11-28T14:56:25;8.20;99.90
12289;DHT22;6207;49.308;7.336;2022-11-28T14:58:59;8.20;99.90
12289;DHT22;6207;49.308;7.336;2022-11-28T15:15:16;8.40;99.90
12289;DHT22;6207;49.308;7.336;2022-11-28T15:17:48;8.30;99.90
12289;DHT22;6207;49.308;7.336;2022-11-28T15:20:28;8.40;99.90
12289;DHT22;6207;49.308;7.336;2022-11-28T15:22:57;8.10;99.90
12289;DHT22;6207;49.308;7.336;2022-11-28T15:25:28;8.00;99.90
12289;DHT22;6207;49.308;7.336;2022-11-28T15:28:14;8.00;99.90
12289;DHT22;6207;49.308;7.336;2022-11-28T15:30:46;8.00;99.90
12289;DHT22;6207;49.308;7.336;2022-11-28T15:33:13;8.00;99.90
12289;DHT22;6207;49.308;7.336;2022-11-28T15:35:56;7.90;99.90
12289;DHT22;6207;49.308;7.336;2022-11-28T15:38:25;7.90;99.90
12289;DHT22;6207;49.308;7.336;2022-11-28T15:40:53;8.00;99.90
12289;DHT22;6207;49.308;7.336;2022-11-28T15:43:22;7.80;99.90
12289;DHT22;6207;49.308;7.336;2022-11-28T15:45:51;7.80;99.90
12289;DHT22;6207;49.308;7.336;2022-11-28T15:48:35;7.80;99.90
12289;DHT22;6207;49.308;7.336;2022-11-28T15:51:06;7.70;99.90
12289;DHT22;6207;49.308;7.336;2022-11-28T15:53:39;7.70;99.90
12289;DHT22;6207;49.308;7.336;2022-11-28T15:58:35;7.70;99.90
12289;DHT22;6207;49.308;7.336;2022-11-28T16:06:17;7.60;99.90
12289;DHT22;6207;49.308;7.336;2022-11-28T16:08:53;7.60;99.90
12289;DHT22;6207;49.308;7.336;2022-11-28T16:11:23;7.60;99.90
12289;DHT22;6207;49.308;7.336;2022-11-28T16:13:52;7.60;99.90
12289;DHT22;6207;49.308;7.336;2022-11-28T16:16:24;7.60;99.90
12289;DHT22;6207;49.308;7.336;2022-11-28T16:18:57;7.50;99.90
12289;DHT22;6207;49.308;7.336;2022-11-28T16:21:28;7.50;99.90
12289;DHT22;6207;49.308;7.336;2022-11-28T16:23:55;7.50;99.90
12289;DHT22;6207;49.308;7.336;2022-11-28T16:31:33;7.50;99.90
12289;DHT22;6207;49.308;7.336;2022-11-28T16:34:01;7.40;99.90
12289;DHT22;6207;49.308;7.336;2022-11-28T16:39:14;7.50;99.90
12289;DHT22;6207;49.308;7.336;2022-11-28T16:41:50;7.40;99.90
12289;DHT22;6207;49.308;7.336;2022-11-28T16:44:22;7.40;99.90
12289;DHT22;6207;49.308;7.336;2022-11-28T16:46:55;7.40;99.90
12289;DHT22;6207;49.308;7.336;2022-11-28T16:49:30;7.40;99.90
12289;DHT22;6207;49.308;7.336;2022-11-28T16:54:48;7.40;99.90
12289;DHT22;6207;49.308;7.336;2022-11-28T16:57:15;7.60;99.90
12289;DHT22;6207;49.308;7.336;2022-11-28T16:59:43;7.30;99.90
12289;DHT22;6207;49.308;7.336;2022-11-28T17:02:16;7.30;99.90
12289;DHT22;6207;49.308;7.336;2022-11-28T17:04:45;7.30;99.90
12289;DHT22;6207;49.308;7.336;2022-11-28T17:07:17;7.30;99.90
12289;DHT22;6207;49.308;7.336;2022-11-28T17:09:46;7.30;99.90
12289;DHT22;6207;49.308;7.336;2022-11-28T17:14:53;7.20;99.90
12289;DHT22;6207;49.308;7.336;2022-11-28T17:17:21;7.20;99.90
12289;DHT22;6207;49.308;7.336;2022-11-28T17:19:49;7.20;99.90
12289;DHT22;6207;49.308;7.336;2022-11-28T17:22:21;7.20;99.90
12289;DHT22;6207;49.308;7.336;2022-11-28T17:24:50;6.80;99.90
12289;DHT22;6207;49.308;7.336;2022-11-28T17:27:17;7.30;99.90
12289;DHT22;6207;49.308;7.336;2022-11-28T17:29:44;7.10;99.90
12289;DHT22;6207;49.308;7.336;2022-11-28T17:32:12;7.10;99.90
12289;DHT22;6207;49.308;7.336;2022-11-28T17:34:40;7.10;99.90
12289;DHT22;6207;49.308;7.336;2022-11-28T17:37:08;7.30;99.90
12289;DHT22;6207;49.308;7.336;2022-11-28T17:39:35;7.00;99.90
12289;DHT22;6207;49.308;7.336;2022-11-28T17:42:03;7.10;99.90
12289;DHT22;6207;49.308;7.336;2022-11-28T17:44:32;7.10;99.90
12289;DHT22;6207;49.308;7.336;2022-11-28T17:47:00;7.00;99.90
12289;DHT22;6207;49.308;7.336;2022-11-28T17:49:28;7.00;99.90
12289;DHT22;6207;49.308;7.336;2022-11-28T17:51:56;7.00;99.90
12289;DHT22;6207;49.308;7.336;2022-11-28T17:54:24;7.40;99.90
12289;DHT22;6207;49.308;7.336;2022-11-28T17:56:52;7.00;99.90
12289;DHT22;6207;49.308;7.336;2022-11-28T17:59:22;6.90;99.90
12289;DHT22;6207;49.308;7.336;2022-11-28T18:01:49;7.10;99.90
12289;DHT22;6207;49.308;7.336;2022-11-28T18:04:16;6.90;99.90
12289;DHT22;6207;49.308;7.336;2022-11-28T18:06:45;7.20;99.90
12289;DHT22;6207;49.308;7.336;2022-11-28T18:09:12;6.90;99.90
12289;DHT22;6207;49.308;7.336;2022-11-28T18:11:41;6.90;99.90
12289;DHT22;6207;49.308;7.336;2022-11-28T18:14:08;7.00;99.90
12289;DHT22;6207;49.308;7.336;2022-11-28T18:16:35;7.00;99.90
12289;DHT22;6207;49.308;7.336;2022-11-28T18:19:03;6.70;99.90
12289;DHT22;6207;49.308;7.336;2022-11-28T18:21:30;6.90;99.90
12289;DHT22;6207;49.308;7.336;2022-11-28T18:23:57;6.90;99.90
12289;DHT22;6207;49.308;7.336;2022-11-28T18:26:25;6.90;99.90
12289;DHT22;6207;49.308;7.336;2022-11-28T18:28:52;6.90;99.90
12289;DHT22;6207;49.308;7.336;2022-11-28T18:31:22;6.90;99.90
12289;DHT22;6207;49.308;7.336;2022-11-28T18:33:50;6.90;99.90
12289;DHT22;6207;49.308;7.336;2022-11-28T18:36:22;6.90;99.90
12289;DHT22;6207;49.308;7.336;2022-11-28T18:38:54;6.90;99.90
12289;DHT22;6207;49.308;7.336;2022-11-28T18:41:22;7.00;99.90
12289;DHT22;6207;49.308;7.336;2022-11-28T18:43:54;7.00;99.90
12289;DHT22;6207;49.308;7.336;2022-11-28T18:46:21;6.90;99.90
12289;DHT22;6207;49.308;7.336;2022-11-28T18:48:48;6.90;99.90
12289;DHT22;6207;49.308;7.336;2022-11-28T18:51:25;6.90;99.90
12289;DHT22;6207;49.308;7.336;2022-11-28T18:53:53;6.90;99.90
12289;DHT22;6207;49.308;7.336;2022-11-28T18:56:21;7.00;99.90
12289;DHT22;6207;49.308;7.336;2022-11-28T18:58:50;6.90;99.90
12289;DHT22;6207;49.308;7.336;2022-11-28T19:01:23;7.10;99.90
12289;DHT22;6207;49.308;7.336;2022-11-28T19:03:55;7.00;99.90
12289;DHT22;6207;49.308;7.336;2022-11-28T19:06:23;7.10;99.90
12289;DHT22;6207;49.308;7.336;2022-11-28T19:08:55;6.90;99.90
12289;DHT22;6207;49.308;7.336;2022-11-28T19:11:22;6.90;99.90
12289;DHT22;6207;49.308;7.336;2022-11-28T19:13:50;6.90;99.90
12289;DHT22;6207;49.308;7.336;2022-11-28T19:16:30;7.10;99.90
12289;DHT22;6207;49.308;7.336;2022-11-28T19:18:59;7.10;99.90
12289;DHT22;6207;49.308;7.336;2022-11-28T19:21:32;7.00;99.90
12289;DHT22;6207;49.308;7.336;2022-11-28T19:23:59;6.90;99.90
12289;DHT22;6207;49.308;7.336;2022-11-28T19:26:28;6.90;99.90
12289;DHT22;6207;49.308;7.336;2022-11-28T19:28:55;6.90;99.90
12289;DHT22;6207;49.308;7.336;2022-11-28T19:31:25;6.90;99.90
12289;DHT22;6207;49.308;7.336;2022-11-28T19:34:01;6.90;99.90
12289;DHT22;6207;49.308;7.336;2022-11-28T19:36:33;6.90;99.90
12289;DHT22;6207;49.308;7.336;2022-11-28T19:39:01;7.00;99.90
12289;DHT22;6207;49.308;7.336;2022-11-28T19:41:28;7.00;99.90
12289;DHT22;6207;49.308;7.336;2022-11-28T19:43:55;7.00;99.90